Time;durP1;ratioP1;P1;durP2;ratioP2;P2;SDS_P1;SDS_P2;PMS_P1;PMS_P2;Temp;Humidity;BMP_temperature;BMP_pressure;BME280_temperature;BME280_humidity;BME280_pressure;Samples;Min_cycle;Max_cycle;Signal;HPM_P1;HPM_P2
2023/11/10 00:00:10;;;;;;;10.55;1.70;;;7.50;99.90;;;;;;5066444;28;20432;-73
2023/11/10 00:02:42;;;;;;;12.13;1.83;;;7.50;99.90;;;;;;5048282;28;20062;-74
2023/11/10 00:05:11;;;;;;;5.35;1.35;;;7.50;99.90;;;;;;5047224;28;20139;-73
2023/11/10 00:07:38;;;;;;;5.95;1.25;;;7.50;99.90;;;;;;4717481;28;10000107;-73
2023/11/10 00:10:07;;;;;;;9.43;1.42;;;7.50;99.90;;;;;;5066504;28;20053;-73
2023/11/10 00:12:34;;;;;;;4.90;0.98;;;7.40;99.90;;;;;;5068045;28;20071;-74
2023/11/10 00:15:01;;;;;;;14.75;2.28;;;7.50;99.90;;;;;;5068237;28;20073;-74
2023/11/10 00:17:28;;;;;;;4.55;1.40;;;7.50;99.90;;;;;;5069628;28;20212;-74
2023/11/10 00:19:55;;;;;;;7.80;1.42;;;7.50;99.90;;;;;;5063763;28;20411;-73
2023/11/10 00:22:21;;;;;;;7.65;1.65;;;7.50;99.90;;;;;;5069417;28;20055;-74
2023/11/10 00:24:48;;;;;;;5.82;1.33;;;7.50;99.90;;;;;;5069429;28;20106;-74
2023/11/10 00:27:16;;;;;;;11.90;1.50;;;7.50;99.90;;;;;;5070036;28;20041;-74
2023/11/10 00:29:44;;;;;;;10.70;1.75;;;7.50;99.90;;;;;;5067531;28;20438;-74
2023/11/10 00:32:11;;;;;;;14.82;2.08;;;7.60;99.90;;;;;;5067609;28;20037;-74
2023/11/10 00:34:39;;;;;;;9.95;1.77;;;7.60;99.90;;;;;;5066091;28;20059;-73
2023/11/10 00:37:06;;;;;;;8.68;1.48;;;7.70;99.90;;;;;;5069067;28;20131;-74
2023/11/10 00:39:33;;;;;;;9.68;2.15;;;7.60;99.90;;;;;;5069161;28;20055;-74
2023/11/10 00:42:00;;;;;;;15.80;2.10;;;7.60;99.90;;;;;;5069479;28;20067;-74
2023/11/10 00:44:29;;;;;;;11.20;2.75;;;7.60;99.90;;;;;;5068976;28;20078;-74
2023/11/10 00:47:04;;;;;;;9.43;2.78;;;7.70;99.90;;;;;;5069234;28;20044;-75
2023/11/10 00:49:31;;;;;;;9.80;2.47;;;7.70;99.90;;;;;;5054848;28;20049;-74
2023/11/10 00:51:57;;;;;;;14.35;2.85;;;7.70;99.90;;;;;;5069085;28;20044;-74
2023/11/10 00:54:24;;;;;;;10.05;3.28;;;7.70;99.90;;;;;;5068514;28;20306;-74
2023/11/10 00:56:52;;;;;;;19.10;3.45;;;7.70;99.90;;;;;;5068483;28;20487;-73
2023/11/10 00:59:19;;;;;;;7.55;2.13;;;7.70;99.90;;;;;;5067005;28;20048;-73
2023/11/10 01:01:47;;;;;;;15.90;2.83;;;7.70;99.90;;;;;;5049868;28;20049;-74
2023/11/10 01:04:14;;;;;;;12.10;2.63;;;7.70;99.90;;;;;;5035408;28;20059;-72
2023/11/10 01:06:41;;;;;;;17.15;2.58;;;7.80;99.90;;;;;;5069540;28;20109;-74
2023/11/10 01:09:08;;;;;;;10.32;3.30;;;7.70;99.90;;;;;;5069508;28;20135;-74
2023/11/10 01:11:35;;;;;;;14.48;2.72;;;7.70;99.90;;;;;;5069768;28;20048;-73
2023/11/10 01:14:04;;;;;;;6.65;2.05;;;7.70;99.90;;;;;;5069281;28;20186;-73
2023/11/10 01:16:31;;;;;;;14.82;1.88;;;7.70;99.90;;;;;;5068830;28;20040;-73
2023/11/10 01:18:58;;;;;;;8.70;2.28;;;7.60;99.90;;;;;;5068385;28;20059;-74
2023/11/10 01:21:25;;;;;;;9.88;1.67;;;7.60;99.90;;;;;;5068545;28;20044;-73
2023/11/10 01:23:52;;;;;;;7.35;1.95;;;7.60;99.90;;;;;;5068194;28;20049;-74
2023/11/10 01:26:19;;;;;;;10.75;2.17;;;7.50;99.90;;;;;;5067779;28;20094;-73
2023/11/10 01:28:46;;;;;;;18.88;3.45;;;7.50;99.90;;;;;;5034247;28;20047;-74
2023/11/10 01:31:15;;;;;;;10.38;1.70;;;7.50;99.90;;;;;;5051424;28;20568;-73
2023/11/10 01:33:43;;;;;;;7.25;1.48;;;7.40;99.90;;;;;;5068390;28;20122;-73
2023/11/10 01:36:10;;;;;;;8.80;2.58;;;7.50;99.90;;;;;;5068659;28;20048;-73
2023/11/10 01:38:37;;;;;;;7.85;1.92;;;7.40;99.90;;;;;;5050542;28;20131;-73
2023/11/10 01:41:04;;;;;;;5.97;1.70;;;7.40;99.90;;;;;;5068877;28;20150;-73
2023/11/10 01:43:31;;;;;;;13.32;2.13;;;7.30;99.90;;;;;;5068140;28;20036;-73
2023/11/10 01:45:58;;;;;;;9.80;2.00;;;7.40;99.90;;;;;;5068226;28;20080;-74
2023/11/10 01:48:25;;;;;;;8.07;2.33;;;7.40;99.90;;;;;;5050174;28;20114;-74
2023/11/10 01:50:52;;;;;;;13.18;3.05;;;7.40;99.90;;;;;;5047791;28;20509;-73
2023/11/10 01:53:19;;;;;;;16.08;1.70;;;7.40;99.90;;;;;;5049682;28;20048;-73
2023/11/10 01:55:47;;;;;;;10.85;2.15;;;7.40;99.90;;;;;;5067738;28;20048;-74
2023/11/10 01:58:13;;;;;;;13.23;2.47;;;7.40;99.90;;;;;;5033941;28;20487;-73
2023/11/10 02:00:40;;;;;;;12.35;1.95;;;7.40;99.90;;;;;;5068133;28;20056;-73
2023/11/10 02:03:07;;;;;;;18.10;2.33;;;7.40;99.90;;;;;;5067684;28;20087;-74
2023/11/10 02:05:36;;;;;;;11.88;2.60;;;7.50;99.90;;;;;;5034007;28;20048;-74
2023/11/10 02:08:03;;;;;;;15.38;2.42;;;7.50;99.90;;;;;;4719480;28;10000361;-73
2023/11/10 02:10:30;;;;;;;13.38;2.30;;;7.50;99.90;;;;;;5050725;28;20058;-74
2023/11/10 02:12:57;;;;;;;9.65;2.03;;;7.50;99.90;;;;;;5067859;28;20048;-72
2023/11/10 02:15:24;;;;;;;15.70;2.60;;;7.50;99.90;;;;;;5068452;28;20071;-75
2023/11/10 02:17:51;;;;;;;20.08;4.80;;;7.50;99.90;;;;;;5067639;28;20087;-74
2023/11/10 02:20:18;;;;;;;19.30;3.40;;;7.50;99.90;;;;;;5067756;28;20139;-75
2023/11/10 02:22:48;;;;;;;13.00;2.72;;;7.50;99.90;;;;;;5050479;28;20048;-75
2023/11/10 02:25:18;;;;;;;16.27;2.53;;;7.50;99.90;;;;;;5067787;28;20041;-74
2023/11/10 02:27:45;;;;;;;24.67;3.60;;;7.60;99.90;;;;;;5031737;28;20056;-75
2023/11/10 02:30:13;;;;;;;18.55;2.65;;;7.60;99.90;;;;;;5062983;28;20064;-74
2023/11/10 02:32:42;;;;;;;10.75;2.45;;;7.60;99.90;;;;;;5053185;28;20114;-72
2023/11/10 02:35:10;;;;;;;18.65;2.97;;;7.70;99.90;;;;;;5071755;28;20074;-74
2023/11/10 02:37:37;;;;;;;14.48;2.75;;;7.70;99.90;;;;;;5054324;28;20044;-74
2023/11/10 02:40:07;;;;;;;23.45;3.42;;;7.70;99.90;;;;;;5071542;28;20450;-73
2023/11/10 02:42:34;;;;;;;11.30;2.35;;;7.70;99.90;;;;;;5072243;28;20045;-72
2023/11/10 02:45:02;;;;;;;23.52;3.10;;;7.70;99.90;;;;;;5071460;28;20189;-74
2023/11/10 02:47:30;;;;;;;21.10;3.85;;;7.70;99.90;;;;;;5071815;28;20118;-73
2023/11/10 02:49:57;;;;;;;12.63;1.95;;;7.70;99.90;;;;;;5053371;28;20369;-73
2023/11/10 02:52:25;;;;;;;17.88;3.22;;;7.70;99.90;;;;;;5071598;28;20048;-73
2023/11/10 02:54:52;;;;;;;55.50;5.68;;;7.70;99.90;;;;;;5071181;28;20113;-73
2023/11/10 02:57:20;;;;;;;27.02;4.82;;;7.70;99.90;;;;;;5070768;28;20477;-73
2023/11/10 02:59:48;;;;;;;14.93;1.77;;;7.70;99.90;;;;;;5068272;28;20079;-73
2023/11/10 03:02:15;;;;;;;16.55;3.42;;;7.70;99.90;;;;;;5052897;28;20049;-73
2023/11/10 03:04:42;;;;;;;18.20;4.13;;;7.70;99.90;;;;;;5071072;28;20052;-73
2023/11/10 03:07:10;;;;;;;18.00;2.45;;;7.70;99.90;;;;;;5070576;28;20040;-74
2023/11/10 03:09:39;;;;;;;18.23;2.75;;;7.80;99.90;;;;;;5069458;28;20052;-73
2023/11/10 03:12:08;;;;;;;12.55;2.78;;;7.80;99.90;;;;;;5070426;28;20053;-73
2023/11/10 03:14:36;;;;;;;15.80;2.60;;;7.80;99.90;;;;;;5070869;28;20056;-73
2023/11/10 03:17:04;;;;;;;19.80;5.35;;;7.80;99.90;;;;;;5070874;28;20492;-72
2023/11/10 03:19:31;;;;;;;27.65;3.03;;;7.80;99.90;;;;;;5071322;28;20072;-73
2023/11/10 03:21:57;;;;;;;17.77;2.75;;;7.80;99.90;;;;;;5071039;28;20117;-73
2023/11/10 03:24:24;;;;;;;12.48;2.08;;;7.80;99.90;;;;;;5071053;28;20049;-73
2023/11/10 03:26:51;;;;;;;18.90;2.55;;;7.80;99.90;;;;;;5071403;28;20072;-73
2023/11/10 03:29:18;;;;;;;16.83;2.53;;;7.90;99.90;;;;;;5071924;28;20053;-73
2023/11/10 03:31:45;;;;;;;21.35;3.65;;;7.80;99.90;;;;;;5068508;28;20051;-73
2023/11/10 03:34:12;;;;;;;14.93;2.97;;;7.80;99.90;;;;;;5052845;28;20049;-74
2023/11/10 03:36:39;;;;;;;16.35;2.40;;;7.80;99.90;;;;;;5070773;28;20059;-74
2023/11/10 03:39:06;;;;;;;14.65;4.85;;;7.70;99.90;;;;;;5070849;28;20515;-74
2023/11/10 03:41:33;;;;;;;17.77;5.43;;;7.70;99.90;;;;;;5070550;28;20056;-74
2023/11/10 03:43:59;;;;;;;16.92;2.58;;;7.80;99.90;;;;;;5070095;28;20044;-73
2023/11/10 03:46:26;;;;;;;17.95;3.15;;;7.70;99.90;;;;;;5070697;28;20653;-73
2023/11/10 03:48:53;;;;;;;17.45;2.50;;;7.80;99.90;;;;;;5070190;28;20052;-72
2023/11/10 03:51:20;;;;;;;13.48;2.40;;;7.80;99.90;;;;;;5070325;28;20044;-73
2023/11/10 03:53:47;;;;;;;14.57;2.20;;;7.90;99.90;;;;;;5070433;28;20397;-73
2023/11/10 03:56:14;;;;;;;12.27;2.35;;;8.00;99.90;;;;;;5071088;28;20048;-74
2023/11/10 03:58:41;;;;;;;15.45;2.97;;;7.90;99.90;;;;;;5052155;28;20139;-74
2023/11/10 04:01:11;;;;;;;16.48;3.65;;;8.00;99.90;;;;;;5069987;28;20052;-73
2023/11/10 04:03:39;;;;;;;17.50;2.60;;;8.00;99.90;;;;;;5069625;28;20071;-74
2023/11/10 04:06:06;;;;;;;19.20;2.88;;;8.00;99.90;;;;;;5058345;28;20144;-74
2023/11/10 04:08:33;;;;;;;15.93;2.20;;;8.00;99.90;;;;;;5049419;28;20400;-73
2023/11/10 04:11:01;;;;;;;15.18;3.72;;;8.00;99.90;;;;;;5052403;28;20416;-73
2023/11/10 04:13:28;;;;;;;8.38;1.45;;;8.00;99.90;;;;;;5069660;28;20080;-74
2023/11/10 04:15:56;;;;;;;16.35;2.17;;;7.90;99.90;;;;;;5070639;28;20498;-73
2023/11/10 04:18:27;;;;;;;13.25;2.60;;;8.00;99.90;;;;;;5052075;28;20512;-73
2023/11/10 04:20:55;;;;;;;13.75;3.10;;;8.00;99.90;;;;;;5069982;28;20049;-74
2023/11/10 04:23:22;;;;;;;12.68;2.10;;;8.00;99.90;;;;;;5069401;28;20119;-74
2023/11/10 04:25:49;;;;;;;20.83;2.95;;;8.00;99.90;;;;;;5070331;28;20052;-74
2023/11/10 04:28:16;;;;;;;10.18;2.13;;;8.00;99.90;;;;;;5069426;28;20048;-74
2023/11/10 04:30:44;;;;;;;12.35;2.30;;;8.00;99.90;;;;;;5069413;28;20471;-74
2023/11/10 04:33:11;;;;;;;12.02;2.10;;;8.00;99.90;;;;;;5069442;28;20120;-73
2023/11/10 04:35:38;;;;;;;19.33;2.30;;;8.00;99.90;;;;;;5059104;28;20075;-71
2023/11/10 04:38:08;;;;;;;11.13;2.10;;;8.00;99.90;;;;;;5069394;28;20085;-73
2023/11/10 04:40:35;;;;;;;9.93;1.80;;;8.00;99.90;;;;;;5069392;28;20400;-73
2023/11/10 04:43:02;;;;;;;12.13;1.80;;;8.00;99.90;;;;;;5069236;28;20048;-74
2023/11/10 04:45:29;;;;;;;7.50;1.50;;;8.00;99.90;;;;;;5069717;28;20062;-74
2023/11/10 04:47:57;;;;;;;18.60;2.70;;;7.90;99.90;;;;;;5069720;28;20058;-73
2023/11/10 04:50:23;;;;;;;12.10;2.00;;;7.90;99.90;;;;;;5063995;28;20048;-73
2023/11/10 04:52:53;;;;;;;11.27;2.15;;;7.90;99.90;;;;;;5044470;28;20067;-74
2023/11/10 04:55:20;;;;;;;13.82;2.30;;;8.00;99.90;;;;;;5066326;28;20040;-73
2023/11/10 04:57:47;;;;;;;12.52;3.30;;;8.00;99.90;;;;;;5048798;28;20064;-74
2023/11/10 05:00:15;;;;;;;9.32;1.48;;;8.00;99.90;;;;;;5049477;28;20135;-74
2023/11/10 05:02:45;;;;;;;6.05;1.55;;;8.00;99.90;;;;;;5048918;28;20044;-74
2023/11/10 05:05:14;;;;;;;8.85;1.60;;;8.00;99.90;;;;;;5048678;28;20504;-74
2023/11/10 05:07:42;;;;;;;8.40;1.52;;;8.10;99.90;;;;;;5048819;28;20053;-74
2023/11/10 05:10:09;;;;;;;8.15;1.20;;;8.10;99.90;;;;;;5047161;28;20051;-73
2023/11/10 05:12:36;;;;;;;9.85;2.35;;;8.10;99.90;;;;;;5048798;28;20051;-74
2023/11/10 05:15:07;;;;;;;10.75;1.67;;;8.10;99.90;;;;;;5048395;28;20049;-74
2023/11/10 05:17:44;;;;;;;8.40;1.55;;;8.10;99.90;;;;;;5048569;28;20040;-74
2023/11/10 05:20:11;;;;;;;7.03;1.88;;;8.20;99.90;;;;;;5047489;28;20053;-74
2023/11/10 05:22:40;;;;;;;2.85;0.93;;;8.20;99.90;;;;;;5048525;28;20080;-74
2023/11/10 05:25:13;;;;;;;5.22;2.15;;;8.20;99.90;;;;;;5048608;28;20095;-74
2023/11/10 05:27:40;;;;;;;5.28;1.17;;;8.30;99.90;;;;;;5048795;28;20053;-74
2023/11/10 05:30:07;;;;;;;5.75;0.68;;;8.20;99.90;;;;;;5047070;28;20079;-73
2023/11/10 05:32:34;;;;;;;7.45;1.27;;;8.20;99.90;;;;;;5045906;28;20328;-74
2023/11/10 05:35:01;;;;;;;4.32;0.60;;;8.30;99.90;;;;;;5048056;28;20111;-74
2023/11/10 05:37:28;;;;;;;4.65;0.60;;;8.30;99.90;;;;;;5047212;28;20049;-74
2023/11/10 05:39:54;;;;;;;6.55;0.60;;;8.30;99.90;;;;;;5048515;28;20111;-74
2023/11/10 05:42:21;;;;;;;1.55;0.55;;;8.30;99.90;;;;;;5047316;28;20106;-74
2023/11/10 05:44:49;;;;;;;1.85;0.68;;;8.30;99.90;;;;;;5047952;28;20052;-74
2023/11/10 05:47:16;;;;;;;1.80;0.70;;;8.40;99.90;;;;;;5048016;28;20098;-74
2023/11/10 05:49:43;;;;;;;4.47;0.40;;;8.40;99.90;;;;;;5048086;28;20446;-74
2023/11/10 05:52:11;;;;;;;1.55;0.30;;;8.40;99.90;;;;;;5048259;28;20067;-73
2023/11/10 05:54:39;;;;;;;1.65;0.55;;;8.40;99.90;;;;;;5048213;28;20491;-73
2023/11/10 05:57:06;;;;;;;1.40;0.47;;;8.40;99.90;;;;;;5034531;28;20050;-73
2023/11/10 05:59:33;;;;;;;1.23;0.28;;;8.40;99.90;;;;;;5061094;28;20064;-73
2023/11/10 06:02:02;;;;;;;1.48;0.40;;;8.40;99.90;;;;;;5049825;28;20113;-73
2023/11/10 06:04:29;;;;;;;1.17;0.30;;;8.30;99.90;;;;;;5068389;28;20044;-73
2023/11/10 06:07:02;;;;;;;1.85;0.50;;;8.30;99.90;;;;;;5050300;28;20522;-72
2023/11/10 06:09:31;;;;;;;4.80;1.67;;;8.30;99.90;;;;;;5068175;28;20087;-73
2023/11/10 06:11:58;;;;;;;2.35;0.50;;;8.30;99.90;;;;;;5065013;28;20086;-73
2023/11/10 06:14:24;;;;;;;1.52;0.30;;;8.20;99.90;;;;;;5067576;28;20076;-72
2023/11/10 06:16:51;;;;;;;1.65;0.47;;;8.30;99.90;;;;;;5067951;28;20049;-72
2023/11/10 06:19:19;;;;;;;2.10;0.20;;;8.20;99.90;;;;;;5068080;28;20088;-73
2023/11/10 06:21:45;;;;;;;0.65;0.32;;;8.20;99.90;;;;;;5047204;28;20101;-73
2023/11/10 06:24:12;;;;;;;4.40;0.57;;;8.10;99.90;;;;;;5067690;28;20045;-73
2023/11/10 06:26:39;;;;;;;1.88;0.43;;;8.10;99.90;;;;;;5067745;28;20194;-74
2023/11/10 06:29:06;;;;;;;1.52;0.43;;;8.20;99.90;;;;;;5067572;28;20078;-72
2023/11/10 06:31:33;;;;;;;0.70;0.40;;;8.10;99.90;;;;;;5067782;28;20057;-73
2023/11/10 06:34:00;;;;;;;1.20;0.40;;;8.00;99.90;;;;;;5031869;28;20090;-73
2023/11/10 06:36:27;;;;;;;1.40;0.30;;;8.00;99.90;;;;;;5066286;28;20076;-73
2023/11/10 06:38:54;;;;;;;1.20;0.55;;;8.00;99.90;;;;;;5067364;28;20511;-73
2023/11/10 06:41:21;;;;;;;0.30;0.28;;;7.90;99.90;;;;;;5067827;28;20086;-73
2023/11/10 06:43:47;;;;;;;2.83;0.82;;;7.90;99.90;;;;;;5066729;28;20052;-73
2023/11/10 06:46:22;;;;;;;0.43;0.25;;;7.90;99.90;;;;;;5067416;28;20075;-72
2023/11/10 06:48:54;;;;;;;0.77;0.40;;;7.90;99.90;;;;;;5066937;28;20423;-72
2023/11/10 06:51:20;;;;;;;0.47;0.30;;;7.80;99.90;;;;;;5065280;28;20128;-72
2023/11/10 06:53:47;;;;;;;0.70;0.45;;;7.80;99.90;;;;;;5066657;28;20053;-71
2023/11/10 06:56:14;;;;;;;4.15;0.70;;;7.80;99.90;;;;;;5067325;28;20056;-72
2023/11/10 06:58:41;;;;;;;2.00;0.50;;;7.80;99.90;;;;;;5049249;28;20059;-72
2023/11/10 07:01:08;;;;;;;1.08;0.55;;;7.80;99.90;;;;;;5064717;28;20044;-72
2023/11/10 07:03:35;;;;;;;1.20;0.32;;;7.80;99.90;;;;;;5049129;28;20150;-72
2023/11/10 07:06:04;;;;;;;5.07;0.82;;;7.80;99.90;;;;;;5067006;28;20586;-71
2023/11/10 07:08:32;;;;;;;6.13;0.77;;;7.80;99.90;;;;;;5067032;28;20044;-71
2023/11/10 07:11:02;;;;;;;3.00;0.93;;;7.80;99.90;;;;;;5064211;28;20118;-71
2023/11/10 07:13:29;;;;;;;5.97;1.00;;;7.80;99.90;;;;;;5067130;28;20048;-71
2023/11/10 07:15:57;;;;;;;1.10;0.70;;;7.80;99.90;;;;;;5067418;28;20087;-73
2023/11/10 07:18:26;;;;;;;4.38;0.80;;;7.80;99.90;;;;;;5067008;28;20420;-73
2023/11/10 07:20:54;;;;;;;4.32;0.60;;;7.70;99.90;;;;;;5067954;28;20048;-74
2023/11/10 07:23:21;;;;;;;6.53;1.10;;;7.70;99.90;;;;;;5051485;28;20136;-73
2023/11/10 07:25:49;;;;;;;8.35;2.00;;;7.70;99.90;;;;;;5070361;28;20059;-74
2023/11/10 07:28:15;;;;;;;8.07;1.50;;;7.70;99.90;;;;;;5070685;28;20036;-74
2023/11/10 07:30:43;;;;;;;3.70;0.88;;;7.70;99.90;;;;;;5070468;28;20045;-73
2023/11/10 07:33:10;;;;;;;5.57;0.95;;;7.70;99.90;;;;;;5070390;28;20052;-71
2023/11/10 07:35:37;;;;;;;6.63;1.05;;;7.70;99.90;;;;;;5069384;28;20074;-69
2023/11/10 07:38:05;;;;;;;2.30;0.77;;;7.70;99.90;;;;;;5070474;28;20063;-69
2023/11/10 07:40:32;;;;;;;3.80;0.95;;;7.70;99.90;;;;;;5057951;28;20055;-71
2023/11/10 07:42:59;;;;;;;7.50;0.95;;;7.70;99.90;;;;;;5066962;28;20048;-69
2023/11/10 07:45:28;;;;;;;24.00;3.95;;;7.70;99.90;;;;;;5069051;28;20052;-69
2023/11/10 07:47:55;;;;;;;5.03;0.88;;;7.70;99.90;;;;;;5069235;28;20052;-70
2023/11/10 07:50:24;;;;;;;6.85;0.80;;;7.80;99.90;;;;;;4714701;28;10000280;-68
2023/11/10 07:52:51;;;;;;;3.15;0.90;;;7.80;99.90;;;;;;5065239;28;20487;-69
2023/11/10 07:55:18;;;;;;;8.30;1.58;;;7.90;99.90;;;;;;5065769;28;20116;-69
2023/11/10 07:57:45;;;;;;;7.70;1.20;;;7.90;99.90;;;;;;5066463;28;20401;-69
2023/11/10 08:00:13;;;;;;;3.22;0.90;;;7.90;99.90;;;;;;5065689;28;20117;-68
2023/11/10 08:02:41;;;;;;;5.88;1.55;;;7.90;99.90;;;;;;5065168;28;20058;-69
2023/11/10 08:05:08;;;;;;;6.35;0.80;;;8.00;99.90;;;;;;5065789;28;20315;-69
2023/11/10 08:07:36;;;;;;;6.97;1.30;;;8.10;99.90;;;;;;5065971;28;20047;-70
2023/11/10 08:10:04;;;;;;;8.85;1.85;;;8.00;99.90;;;;;;5065840;28;20049;-68
2023/11/10 08:12:32;;;;;;;8.27;1.52;;;8.10;99.90;;;;;;5065245;28;20040;-68
2023/11/10 08:15:00;;;;;;;7.47;1.40;;;8.20;99.90;;;;;;5065391;28;20441;-68
2023/11/10 08:17:29;;;;;;;11.95;2.17;;;8.20;99.90;;;;;;5064806;28;20041;-69
2023/11/10 08:19:57;;;;;;;5.05;1.27;;;8.40;99.90;;;;;;5063872;28;20047;-69
2023/11/10 08:22:23;;;;;;;7.47;1.70;;;8.50;99.90;;;;;;5065553;28;20048;-69
2023/11/10 08:24:50;;;;;;;6.57;0.95;;;8.60;99.90;;;;;;5065254;28;20102;-69
2023/11/10 08:27:17;;;;;;;9.90;2.45;;;8.60;99.90;;;;;;5065301;28;20476;-69
2023/11/10 08:29:44;;;;;;;12.35;2.65;;;8.80;99.90;;;;;;5045683;28;20102;-67
2023/11/10 08:32:11;;;;;;;9.60;1.52;;;8.90;99.90;;;;;;5064333;28;20048;-67
2023/11/10 08:34:38;;;;;;;9.35;1.67;;;8.90;99.90;;;;;;5065525;28;20054;-68
2023/11/10 08:37:04;;;;;;;8.70;1.30;;;8.90;99.90;;;;;;5064737;28;20060;-69
2023/11/10 08:39:31;;;;;;;5.68;1.08;;;9.10;99.90;;;;;;5064815;28;20452;-69
2023/11/10 08:41:59;;;;;;;8.60;1.30;;;9.10;99.90;;;;;;5062647;28;20102;-68
2023/11/10 08:44:26;;;;;;;6.03;1.08;;;9.10;99.90;;;;;;5065460;28;20090;-69
2023/11/10 08:46:54;;;;;;;9.18;1.10;;;9.10;99.90;;;;;;5061353;28;20393;-68
2023/11/10 08:49:21;;;;;;;9.63;2.80;;;9.20;99.90;;;;;;5039917;28;20509;-69
2023/11/10 08:51:48;;;;;;;9.75;1.73;;;9.20;99.90;;;;;;5062769;28;20055;-69
2023/11/10 08:54:15;;;;;;;13.25;1.90;;;9.20;99.90;;;;;;5053945;28;20080;-68
2023/11/10 08:56:44;;;;;;;10.38;2.42;;;9.30;99.90;;;;;;5028846;28;20056;-68
2023/11/10 08:59:11;;;;;;;6.03;1.40;;;9.40;99.90;;;;;;5062693;28;20056;-69
2023/11/10 09:01:38;;;;;;;9.20;1.60;;;9.40;99.90;;;;;;5061994;28;20403;-69
2023/11/10 09:04:05;;;;;;;6.75;1.27;;;9.50;99.90;;;;;;5046426;28;20090;-68
2023/11/10 09:06:47;;;;;;;6.45;1.88;;;9.50;99.90;;;;;;5048499;28;20696;-69
2023/11/10 09:09:15;;;;;;;8.18;1.77;;;9.60;99.90;;;;;;5061821;28;20145;-69
2023/11/10 09:11:41;;;;;;;8.07;1.42;;;9.70;99.90;;;;;;5064127;28;20080;-69
2023/11/10 09:14:09;;;;;;;6.97;1.27;;;9.80;99.90;;;;;;5047247;28;20757;-69
2023/11/10 09:16:36;;;;;;;9.90;1.63;;;9.80;99.90;;;;;;5068338;28;20127;-69
2023/11/10 09:19:04;;;;;;;8.82;1.75;;;9.90;99.90;;;;;;5068043;28;20045;-69
2023/11/10 09:21:31;;;;;;;8.98;1.77;;;9.90;99.90;;;;;;5068053;28;20053;-68
2023/11/10 09:23:59;;;;;;;11.23;2.28;;;9.90;99.90;;;;;;5050395;28;20045;-68
2023/11/10 09:26:26;;;;;;;14.27;2.88;;;9.90;99.90;;;;;;5067726;28;20109;-68
2023/11/10 09:28:54;;;;;;;9.20;2.00;;;9.90;99.90;;;;;;5067811;28;20061;-68
2023/11/10 09:31:21;;;;;;;5.80;1.80;;;10.00;99.90;;;;;;5067634;28;20135;-69
2023/11/10 09:33:51;;;;;;;7.60;1.50;;;10.00;99.90;;;;;;5067670;28;20044;-69
2023/11/10 09:36:18;;;;;;;6.53;1.65;;;9.90;99.90;;;;;;5068196;28;20052;-69
2023/11/10 09:38:45;;;;;;;7.85;1.67;;;9.90;99.90;;;;;;5067480;28;20040;-69
2023/11/10 09:41:14;;;;;;;9.13;1.67;;;9.80;99.90;;;;;;5049859;28;20052;-69
2023/11/10 09:43:43;;;;;;;10.82;2.05;;;9.90;99.90;;;;;;5068057;28;20054;-69
2023/11/10 09:46:11;;;;;;;13.45;2.38;;;9.80;99.90;;;;;;5050177;28;20044;-69
2023/11/10 09:48:40;;;;;;;7.97;1.58;;;9.90;99.90;;;;;;5067589;28;20157;-67
2023/11/10 09:51:07;;;;;;;18.10;2.08;;;9.90;99.90;;;;;;5050591;28;20048;-67
2023/11/10 09:53:34;;;;;;;6.82;3.47;;;9.90;99.90;;;;;;5033381;28;20106;-68
2023/11/10 09:56:01;;;;;;;11.43;1.73;;;9.90;99.90;;;;;;5067576;28;20056;-67
2023/11/10 09:58:27;;;;;;;10.57;2.17;;;9.90;99.90;;;;;;5033023;28;20057;-70
2023/11/10 10:00:56;;;;;;;8.70;1.98;;;9.90;99.90;;;;;;5050192;28;20052;-67
2023/11/10 10:03:22;;;;;;;7.55;2.38;;;10.00;99.90;;;;;;5050214;28;20044;-68
2023/11/10 10:05:50;;;;;;;12.73;2.38;;;10.00;99.90;;;;;;5049886;28;20100;-68
2023/11/10 10:08:19;;;;;;;6.53;1.45;;;10.00;99.90;;;;;;5031463;28;20294;-69
2023/11/10 10:10:48;;;;;;;8.68;1.60;;;10.00;99.90;;;;;;5047264;28;20114;-68
2023/11/10 10:13:15;;;;;;;6.55;1.70;;;10.00;99.90;;;;;;5050557;28;20329;-68
2023/11/10 10:15:42;;;;;;;5.68;1.20;;;10.10;99.90;;;;;;5068057;28;20060;-69
2023/11/10 10:18:09;;;;;;;10.60;2.00;;;10.10;99.90;;;;;;5067982;28;20052;-67
2023/11/10 10:20:39;;;;;;;5.97;1.30;;;10.10;99.90;;;;;;5063871;28;20052;-69
2023/11/10 10:23:11;;;;;;;3.42;1.00;;;10.10;99.90;;;;;;5067937;28;20041;-68
2023/11/10 10:25:39;;;;;;;10.45;2.75;;;10.20;99.90;;;;;;5067652;28;20045;-68
2023/11/10 10:28:07;;;;;;;6.57;2.05;;;10.20;99.90;;;;;;5066116;28;20113;-68
2023/11/10 10:30:34;;;;;;;8.45;1.35;;;10.10;99.90;;;;;;5067485;28;20045;-68
2023/11/10 10:33:01;;;;;;;13.45;1.75;;;10.10;99.90;;;;;;5049899;28;20304;-68
2023/11/10 10:35:28;;;;;;;3.88;1.27;;;10.10;99.90;;;;;;5068047;28;20126;-68
2023/11/10 10:38:01;;;;;;;3.80;1.15;;;10.10;99.90;;;;;;5067806;28;20048;-67
2023/11/10 10:40:28;;;;;;;11.32;1.83;;;10.10;99.90;;;;;;5017487;28;20052;-70
2023/11/10 10:42:55;;;;;;;7.35;1.05;;;10.10;99.90;;;;;;5049810;28;20048;-69
2023/11/10 10:45:22;;;;;;;4.97;1.73;;;10.10;99.90;;;;;;5049517;28;20044;-69
2023/11/10 10:47:58;;;;;;;8.55;2.38;;;10.20;99.90;;;;;;5051196;28;20041;-68
2023/11/10 10:50:26;;;;;;;11.55;2.22;;;10.30;99.90;;;;;;5050084;28;20518;-68
2023/11/10 10:52:55;;;;;;;8.75;1.95;;;10.20;99.90;;;;;;5051397;28;20060;-69
2023/11/10 10:55:22;;;;;;;8.77;1.73;;;10.20;99.90;;;;;;5071570;28;20044;-69
2023/11/10 10:57:50;;;;;;;8.75;2.17;;;10.30;99.90;;;;;;5053458;28;20388;-68
2023/11/10 11:00:17;;;;;;;7.20;1.73;;;10.30;99.90;;;;;;5071584;28;20068;-70
2023/11/10 11:03:08;;;;;;;7.50;1.55;;;10.30;99.90;;;;;;5053045;28;20507;-69
2023/11/10 11:06:05;;;;;;;8.25;1.75;;;10.40;99.90;;;;;;5056853;28;20048;-68
2023/11/10 11:08:41;;;;;;;11.98;1.98;;;10.40;99.90;;;;;;5053676;28;20051;-68
2023/11/10 11:11:15;;;;;;;10.65;2.35;;;10.30;99.90;;;;;;5070893;28;20596;-69
2023/11/10 11:13:52;;;;;;;8.98;1.67;;;10.40;99.90;;;;;;5053611;28;20056;-69
2023/11/10 11:16:57;;;;;;;11.40;1.85;;;10.30;99.90;;;;;;5053443;28;20060;-70
2023/11/10 11:19:30;;;;;;;7.45;1.95;;;10.30;99.90;;;;;;5062998;28;20059;-69
2023/11/10 11:21:57;;;;;;;19.27;2.33;;;10.30;99.90;;;;;;5053631;28;20479;-68
2023/11/10 11:24:24;;;;;;;10.07;2.05;;;10.20;99.90;;;;;;5071643;28;20055;-68
2023/11/10 11:26:56;;;;;;;9.38;1.95;;;10.30;99.90;;;;;;5071343;28;20430;-69
2023/11/10 11:29:23;;;;;;;8.93;2.13;;;10.30;99.90;;;;;;5063142;28;20072;-68
2023/11/10 11:31:50;;;;;;;7.68;1.85;;;10.20;99.90;;;;;;5059732;28;20113;-69
2023/11/10 11:34:18;;;;;;;6.68;2.05;;;10.10;99.90;;;;;;5070404;28;20515;-68
2023/11/10 11:36:46;;;;;;;8.80;2.05;;;10.10;99.90;;;;;;5070742;28;20159;-68
2023/11/10 11:39:15;;;;;;;8.32;1.90;;;10.10;99.90;;;;;;5052842;28;20110;-70
2023/11/10 11:41:48;;;;;;;5.43;2.40;;;10.10;99.90;;;;;;5067830;28;20045;-68
2023/11/10 11:44:26;;;;;;;4.55;1.13;;;10.00;99.90;;;;;;5070045;28;20098;-68
2023/11/10 11:46:57;;;;;;;7.63;1.90;;;10.00;99.90;;;;;;5070403;28;20048;-68
2023/11/10 11:49:26;;;;;;;7.00;2.35;;;10.00;99.90;;;;;;5070075;28;20438;-69
2023/11/10 11:51:53;;;;;;;9.73;2.75;;;9.90;99.90;;;;;;5070072;28;20410;-68
2023/11/10 11:54:20;;;;;;;6.40;2.47;;;9.90;99.90;;;;;;5069851;28;20542;-68
2023/11/10 11:56:46;;;;;;;4.78;1.40;;;9.90;99.90;;;;;;5071128;28;20056;-68
2023/11/10 11:59:14;;;;;;;4.63;1.50;;;10.00;99.90;;;;;;5069684;28;20466;-69
2023/11/10 12:01:41;;;;;;;7.88;1.60;;;10.00;99.90;;;;;;5036269;28;20479;-68
2023/11/10 12:04:08;;;;;;;5.68;1.60;;;10.00;99.90;;;;;;5069121;28;20064;-68
2023/11/10 12:06:35;;;;;;;5.38;1.30;;;10.00;99.90;;;;;;5070132;28;20057;-68
2023/11/10 12:09:06;;;;;;;5.55;1.50;;;10.00;99.90;;;;;;5069786;28;20045;-68
2023/11/10 12:11:35;;;;;;;3.72;1.60;;;10.00;99.90;;;;;;5062424;28;20049;-67
2023/11/10 12:14:05;;;;;;;7.10;1.63;;;10.00;99.90;;;;;;5064394;28;20568;-67
2023/11/10 12:16:33;;;;;;;7.05;1.52;;;9.90;99.90;;;;;;5052722;28;20060;-68
2023/11/10 12:19:06;;;;;;;8.45;1.70;;;9.80;99.90;;;;;;5069298;28;20092;-67
2023/11/10 12:21:33;;;;;;;8.73;2.45;;;9.70;99.90;;;;;;5069731;28;20523;-69
2023/11/10 12:24:03;;;;;;;6.05;1.80;;;9.80;99.90;;;;;;5069265;28;20047;-67
2023/11/10 12:26:37;;;;;;;7.07;1.58;;;9.80;99.90;;;;;;5069852;28;20045;-68
2023/11/10 12:29:04;;;;;;;5.72;1.75;;;9.80;99.90;;;;;;5069449;28;20048;-68
2023/11/10 12:31:32;;;;;;;4.13;2.17;;;9.90;99.90;;;;;;5048689;28;20110;-68
2023/11/10 12:34:03;;;;;;;7.45;1.90;;;9.90;99.90;;;;;;5069157;28;20052;-68
2023/11/10 12:36:34;;;;;;;5.30;1.90;;;9.90;99.90;;;;;;5069595;28;20067;-67
2023/11/10 12:39:02;;;;;;;9.00;2.25;;;9.80;99.90;;;;;;5069124;28;20416;-68
2023/11/10 12:41:29;;;;;;;5.05;1.70;;;9.80;99.90;;;;;;5051310;28;20048;-67
2023/11/10 12:43:57;;;;;;;5.97;2.38;;;9.90;99.90;;;;;;5050910;28;20128;-68
2023/11/10 12:46:23;;;;;;;7.45;2.22;;;9.80;99.90;;;;;;5051152;28;20052;-68
2023/11/10 12:48:52;;;;;;;6.07;1.90;;;9.70;99.90;;;;;;5068979;28;20471;-68
2023/11/10 12:51:29;;;;;;;9.48;1.88;;;9.70;99.90;;;;;;5065922;28;20291;-67
2023/11/10 12:54:02;;;;;;;11.10;2.53;;;9.70;99.90;;;;;;5068830;28;20052;-67